createdAt,value
2023-03-19T00:02:17.570Z,100.00
2023-03-19T00:04:58.685Z,100.00
2023-03-19T00:07:39.771Z,100.00
2023-03-19T00:10:29.167Z,100.00
2023-03-19T00:13:10.140Z,100.00
2023-03-19T00:15:54.329Z,100.00
2023-03-19T00:18:49.341Z,100.00
2023-03-19T00:21:35.519Z,100.00
2023-03-19T00:24:25.235Z,100.00
2023-03-19T00:27:13.757Z,100.00
2023-03-19T00:29:55.460Z,100.00
2023-03-19T00:32:40.392Z,100.00
2023-03-19T00:35:25.462Z,100.00
2023-03-19T00:38:11.497Z,99.71
2023-03-19T00:40:55.631Z,100.00
2023-03-19T00:43:46.586Z,100.00
2023-03-19T00:46:36.826Z,100.00
2023-03-19T00:49:16.283Z,100.00
2023-03-19T00:51:58.017Z,100.00
2023-03-19T00:54:44.460Z,100.00
2023-03-19T00:57:28.109Z,100.00
2023-03-19T01:00:08.752Z,100.00
2023-03-19T01:02:54.359Z,100.00
2023-03-19T01:05:39.882Z,100.00
2023-03-19T01:08:21.296Z,100.00
2023-03-19T01:11:11.251Z,100.00
2023-03-19T01:13:54.265Z,100.00
2023-03-19T01:16:40.333Z,100.00
2023-03-19T01:19:29.355Z,100.00
2023-03-19T01:22:13.062Z,100.00
2023-03-19T01:24:54.085Z,100.00
2023-03-19T01:27:37.724Z,100.00
2023-03-19T01:30:33.073Z,100.00
2023-03-19T01:33:26.100Z,100.00
2023-03-19T01:36:10.211Z,100.00
2023-03-19T01:39:06.161Z,100.00
2023-03-19T01:41:41.878Z,100.00
2023-03-19T01:44:43.257Z,100.00
2023-03-19T01:47:40.654Z,100.00
2023-03-19T01:50:35.497Z,100.00
2023-03-19T01:53:46.685Z,100.00
2023-03-19T01:56:44.241Z,100.00
2023-03-19T01:59:51.353Z,100.00
2023-03-19T02:03:01.082Z,100.00
2023-03-19T02:06:01.950Z,100.00
2023-03-19T02:08:51.555Z,100.00
2023-03-19T02:11:29.217Z,100.00
2023-03-19T02:14:09.934Z,100.00
2023-03-19T02:16:47.849Z,100.00
2023-03-19T02:19:51.657Z,100.00
2023-03-19T02:22:34.919Z,100.00
2023-03-19T02:25:55.229Z,100.00
2023-03-19T02:28:40.764Z,100.00
2023-03-19T02:31:22.985Z,100.00
2023-03-19T02:34:38.853Z,100.00
2023-03-19T02:37:22.595Z,100.00
2023-03-19T02:40:22.773Z,100.00
2023-03-19T02:43:10.316Z,100.00
2023-03-19T02:45:52.961Z,100.00
2023-03-19T02:48:36.678Z,100.00
2023-03-19T02:51:20.355Z,100.00
2023-03-19T02:54:06.229Z,100.00
2023-03-19T02:56:52.060Z,100.00
2023-03-19T02:59:33.683Z,100.00
2023-03-19T03:02:19.263Z,100.00
2023-03-19T03:05:02.086Z,99.36
2023-03-19T03:07:44.671Z,98.10
2023-03-19T03:10:25.615Z,97.91
2023-03-19T03:13:11.292Z,97.67
2023-03-19T03:15:53.664Z,96.79
2023-03-19T03:18:31.351Z,95.84
2023-03-19T03:21:17.381Z,95.60
2023-03-19T03:24:09.570Z,96.35
2023-03-19T03:26:59.121Z,96.58
2023-03-19T03:29:37.939Z,96.07
2023-03-19T03:32:18.941Z,96.01
2023-03-19T03:35:02.105Z,96.58
2023-03-19T03:37:49.122Z,96.59
2023-03-19T03:40:34.939Z,96.53
2023-03-19T03:43:18.063Z,96.83
2023-03-19T03:45:56.162Z,97.13
2023-03-19T03:48:38.265Z,96.53
2023-03-19T03:51:11.686Z,97.00
2023-03-19T03:53:46.404Z,97.41
2023-03-19T03:56:24.965Z,96.57
2023-03-19T03:59:11.601Z,96.37
2023-03-19T04:01:50.202Z,96.85
2023-03-19T04:04:33.910Z,96.79
2023-03-19T04:07:14.313Z,97.14
2023-03-19T04:10:03.432Z,97.14
2023-03-19T04:12:45.959Z,97.39
2023-03-19T04:15:19.185Z,97.12
2023-03-19T04:17:56.158Z,97.83
2023-03-19T04:20:45.124Z,98.40
2023-03-19T04:23:20.127Z,98.85
2023-03-19T04:26:05.557Z,99.20
2023-03-19T04:28:43.740Z,100.00
2023-03-19T04:31:27.398Z,100.00
2023-03-19T04:34:09.037Z,100.00
2023-03-19T04:36:52.961Z,100.00
2023-03-19T04:39:39.979Z,100.00
2023-03-19T04:42:20.688Z,100.00
2023-03-19T04:45:27.998Z,100.00
2023-03-19T04:48:11.231Z,100.00
2023-03-19T04:50:52.346Z,100.00
2023-03-19T04:53:35.823Z,100.00
2023-03-19T04:56:19.507Z,100.00
2023-03-19T04:59:02.432Z,100.00
2023-03-19T05:01:34.814Z,100.00
2023-03-19T05:04:13.749Z,100.00
2023-03-19T05:06:55.403Z,100.00
2023-03-19T05:09:39.613Z,100.00
2023-03-19T05:12:22.818Z,100.00
2023-03-19T05:14:59.230Z,100.00
2023-03-19T05:17:49.497Z,100.00
2023-03-19T05:20:56.108Z,100.00
2023-03-19T05:23:57.218Z,100.00
2023-03-19T05:26:38.837Z,100.00
2023-03-19T05:29:41.726Z,100.00
2023-03-19T05:32:52.002Z,100.00
2023-03-19T05:36:03.641Z,100.00
2023-03-19T05:39:08.144Z,100.00
2023-03-19T05:42:07.666Z,100.00
2023-03-19T05:44:52.447Z,100.00
2023-03-19T05:47:34.192Z,100.00
2023-03-19T05:50:20.327Z,100.00
2023-03-19T05:53:26.793Z,99.41
2023-03-19T05:56:28.633Z,97.18
2023-03-19T05:59:42.761Z,95.69
2023-03-19T06:02:48.955Z,92.03
2023-03-19T06:05:43.187Z,90.72
2023-03-19T06:08:35.805Z,87.29
2023-03-19T06:11:33.681Z,85.46
2023-03-19T06:14:38.453Z,83.53
2023-03-19T06:17:51.232Z,82.02
2023-03-19T06:20:42.499Z,79.16
2023-03-19T06:23:28.344Z,77.02
2023-03-19T06:26:08.960Z,74.63
2023-03-19T06:28:59.340Z,75.01
2023-03-19T06:31:45.647Z,72.24
2023-03-19T06:34:49.822Z,69.40
2023-03-19T06:37:34.609Z,68.20
2023-03-19T06:40:18.545Z,66.63
2023-03-19T06:42:57.635Z,66.43
2023-03-19T06:45:36.353Z,65.35
2023-03-19T06:48:20.224Z,64.24
2023-03-19T06:50:56.841Z,64.36
2023-03-19T06:53:42.107Z,62.32
2023-03-19T06:56:25.535Z,59.88
2023-03-19T06:59:11.716Z,58.68
2023-03-19T07:02:05.754Z,57.95
2023-03-19T07:04:52.429Z,58.03
2023-03-19T07:07:37.969Z,57.97
2023-03-19T07:10:27.721Z,56.20
2023-03-19T07:13:04.531Z,54.85
2023-03-19T07:15:53.221Z,53.68
2023-03-19T07:18:37.159Z,52.59
2023-03-19T07:21:29.386Z,53.23
2023-03-19T07:24:07.762Z,52.46
2023-03-19T07:26:57.425Z,51.44
2023-03-19T07:29:46.676Z,51.54
2023-03-19T07:32:32.767Z,50.97
2023-03-19T07:35:14.458Z,50.32
2023-03-19T07:37:55.544Z,51.02
2023-03-19T07:40:59.038Z,51.20
2023-03-19T07:43:46.659Z,49.76
2023-03-19T07:46:31.484Z,49.49
2023-03-19T07:49:20.749Z,50.54
2023-03-19T07:52:14.454Z,48.76
2023-03-19T07:54:50.153Z,48.43
2023-03-19T07:57:33.159Z,48.01
2023-03-19T08:00:23.773Z,47.90
2023-03-19T08:03:05.524Z,47.90
2023-03-19T08:06:02.535Z,46.72
2023-03-19T08:08:46.806Z,45.53
2023-03-19T08:11:29.871Z,46.44
2023-03-19T08:14:26.636Z,45.16
2023-03-19T08:17:02.056Z,45.69
2023-03-19T08:19:54.168Z,45.21
2023-03-19T08:22:41.884Z,46.17
2023-03-19T08:25:26.968Z,45.53
2023-03-19T08:28:16.877Z,45.86
2023-03-19T08:31:03.185Z,46.14
2023-03-19T08:33:49.184Z,44.87
2023-03-19T08:36:42.225Z,43.65
2023-03-19T08:39:20.384Z,43.93
2023-03-19T08:41:58.677Z,44.05
2023-03-19T08:44:49.484Z,43.40
2023-03-19T08:47:36.121Z,43.13
2023-03-19T08:50:16.827Z,42.67
2023-03-19T08:53:01.952Z,42.41
2023-03-19T08:55:51.064Z,42.29
2023-03-19T08:58:32.663Z,43.38
2023-03-19T09:01:21.662Z,43.18
2023-03-19T09:04:05.682Z,42.53
2023-03-19T09:06:51.611Z,42.13
2023-03-19T09:09:43.610Z,41.73
2023-03-19T09:12:29.935Z,43.25
2023-03-19T09:15:13.348Z,42.47
2023-03-19T09:18:04.685Z,43.35
2023-03-19T09:20:50.670Z,41.77
2023-03-19T09:23:38.581Z,41.89
2023-03-19T09:26:18.028Z,40.86
2023-03-19T09:29:05.687Z,41.87
2023-03-19T09:31:46.965Z,39.66
2023-03-19T09:34:33.769Z,40.74
2023-03-19T09:37:17.272Z,40.27
2023-03-19T09:40:00.878Z,40.88
2023-03-19T09:43:00.794Z,39.86
2023-03-19T09:45:45.613Z,40.57
2023-03-19T09:48:48.211Z,41.27
2023-03-19T09:51:30.564Z,39.51
2023-03-19T09:54:28.613Z,39.65
2023-03-19T09:57:15.116Z,39.23
2023-03-19T09:59:58.349Z,38.75
2023-03-19T10:03:03.637Z,38.17
2023-03-19T10:06:29.415Z,39.05
2023-03-19T10:09:52.424Z,37.56
2023-03-19T10:13:00.587Z,38.09
2023-03-19T10:15:41.142Z,37.79
2023-03-19T10:19:00.592Z,38.38
2023-03-19T10:22:01.118Z,37.36
2023-03-19T10:24:59.788Z,38.69
2023-03-19T10:27:37.107Z,36.78
2023-03-19T10:30:19.707Z,37.57
2023-03-19T10:33:27.546Z,36.41
2023-03-19T10:36:16.502Z,38.13
2023-03-19T10:39:09.809Z,37.16
2023-03-19T10:42:14.442Z,38.16
2023-03-19T10:45:24.247Z,38.42
2023-03-19T10:48:08.865Z,39.69
2023-03-19T10:51:15.023Z,37.38
2023-03-19T10:56:53.412Z,37.03
2023-03-19T10:59:39.371Z,37.24
2023-03-19T11:02:50.623Z,38.86
2023-03-19T11:05:38.744Z,37.74
2023-03-19T11:08:34.904Z,38.82
2023-03-19T11:11:45.497Z,37.31
2023-03-19T11:14:46.442Z,36.73
2023-03-19T11:18:00.481Z,37.53
2023-03-19T11:20:45.717Z,35.52
2023-03-19T11:23:40.089Z,37.21
2023-03-19T11:26:32.661Z,36.31
2023-03-19T11:29:20.934Z,35.33
2023-03-19T11:32:25.782Z,35.94
2023-03-19T11:35:25.875Z,37.14
2023-03-19T11:38:14.652Z,35.60
2023-03-19T11:41:06.300Z,34.64
2023-03-19T11:43:50.009Z,34.69
2023-03-19T11:46:42.940Z,33.83
2023-03-19T11:49:46.520Z,33.41
2023-03-19T11:52:58.659Z,33.66
2023-03-19T11:55:55.152Z,32.70
2023-03-19T11:59:09.477Z,33.90
2023-03-19T12:02:09.347Z,32.71
2023-03-19T12:04:56.752Z,32.14
2023-03-19T12:07:52.682Z,33.32
2023-03-19T12:10:57.660Z,32.81
2023-03-19T12:14:08.033Z,31.75
2023-03-19T12:17:06.728Z,32.37
2023-03-19T12:20:07.018Z,32.36
2023-03-19T12:23:19.674Z,32.23
2023-03-19T12:26:25.011Z,31.19
2023-03-19T12:29:18.664Z,30.61
2023-03-19T12:32:20.979Z,31.50
2023-03-19T12:35:11.124Z,32.13
2023-03-19T12:38:01.771Z,31.40
2023-03-19T12:40:58.482Z,31.52
2023-03-19T12:43:54.867Z,30.72
2023-03-19T12:46:39.102Z,31.68
2023-03-19T12:49:38.826Z,28.96
2023-03-19T12:52:27.786Z,30.54
2023-03-19T12:55:36.575Z,30.64
2023-03-19T12:58:28.403Z,29.42
2023-03-19T13:01:29.947Z,28.69
2023-03-19T13:04:29.279Z,29.42
2023-03-19T13:08:00.037Z,28.75
2023-03-19T13:10:46.377Z,28.83
2023-03-19T13:13:51.659Z,29.49
2023-03-19T13:16:41.449Z,29.18
2023-03-19T13:19:46.017Z,29.43
2023-03-19T13:22:22.767Z,29.32
2023-03-19T13:24:59.705Z,28.03
2023-03-19T13:27:41.664Z,27.71
2023-03-19T13:30:29.372Z,28.93
2023-03-19T13:33:25.829Z,28.43
2023-03-19T13:36:07.256Z,29.16
2023-03-19T13:38:50.855Z,29.27
2023-03-19T13:41:51.543Z,30.35
2023-03-19T13:44:46.701Z,28.96
2023-03-19T13:48:04.655Z,29.19
2023-03-19T13:51:36.697Z,28.81
2023-03-19T13:54:25.411Z,29.77
2023-03-19T13:57:18.664Z,31.25
2023-03-19T14:00:22.766Z,30.59
2023-03-19T14:03:38.439Z,30.72
2023-03-19T14:06:36.756Z,31.19
2023-03-19T14:09:41.057Z,31.45
2023-03-19T14:12:40.108Z,31.92
2023-03-19T14:15:28.748Z,32.80
2023-03-19T14:18:19.433Z,33.31
2023-03-19T14:21:36.087Z,34.26
2023-03-19T14:24:58.763Z,33.86
2023-03-19T14:28:04.157Z,33.56
2023-03-19T14:30:54.982Z,34.18
2023-03-19T14:33:58.523Z,33.90
2023-03-19T14:36:51.898Z,33.98
2023-03-19T14:39:59.685Z,34.43
2023-03-19T14:42:58.774Z,34.86
2023-03-19T14:45:44.994Z,34.22
2023-03-19T14:49:03.226Z,35.53
2023-03-19T14:51:57.179Z,35.51
2023-03-19T14:55:10.310Z,35.06
2023-03-19T14:57:59.807Z,36.21
2023-03-19T15:00:37.351Z,35.40
2023-03-19T15:03:44.529Z,36.19
2023-03-19T15:06:27.714Z,36.32
2023-03-19T15:09:29.776Z,36.60
2023-03-19T15:12:34.106Z,35.84
2023-03-19T15:15:40.791Z,36.84
2023-03-19T15:18:27.115Z,35.49
2023-03-19T15:21:11.468Z,34.97
2023-03-19T15:24:01.604Z,35.22
2023-03-19T15:26:44.004Z,34.24
2023-03-19T15:29:33.215Z,34.41
2023-03-19T15:32:49.780Z,33.21
2023-03-19T15:35:42.013Z,33.16
2023-03-19T15:38:26.228Z,33.33
2023-03-19T15:41:12.094Z,32.88
2023-03-19T15:43:58.546Z,32.94
2023-03-19T15:46:42.702Z,34.46
2023-03-19T15:49:40.214Z,34.76
2023-03-19T15:52:26.218Z,34.77
2023-03-19T15:55:09.370Z,35.04
2023-03-19T15:58:00.671Z,34.91
2023-03-19T16:00:47.487Z,34.58
2023-03-19T16:03:52.123Z,34.73
2023-03-19T16:06:51.799Z,34.70
2023-03-19T16:09:34.809Z,34.07
2023-03-19T16:12:43.005Z,33.39
2023-03-19T16:16:22.887Z,34.74
2023-03-19T16:19:12.573Z,35.52
2023-03-19T16:22:00.180Z,36.29
2023-03-19T16:25:25.955Z,36.97
2023-03-19T16:28:08.032Z,36.87
2023-03-19T16:30:57.213Z,37.46
2023-03-19T16:33:37.744Z,37.93
2023-03-19T16:36:20.188Z,38.64
2023-03-19T16:39:29.112Z,38.99
2023-03-19T16:42:42.708Z,39.59
2023-03-19T16:45:38.766Z,40.52
2023-03-19T16:48:29.652Z,41.00
2023-03-19T16:51:19.672Z,41.26
2023-03-19T16:54:00.112Z,41.91
2023-03-19T16:56:54.710Z,42.08
2023-03-19T16:59:38.644Z,42.37
2023-03-19T17:02:28.025Z,42.41
2023-03-19T17:05:04.052Z,43.05
2023-03-19T17:07:50.835Z,43.02
2023-03-19T17:10:49.074Z,43.86
2023-03-19T17:13:38.358Z,44.17
2023-03-19T17:16:20.653Z,44.42
2023-03-19T17:19:15.898Z,44.66
2023-03-19T17:21:57.117Z,45.32
2023-03-19T17:24:43.682Z,45.06
2023-03-19T17:27:22.706Z,45.29
2023-03-19T17:30:08.138Z,45.81
2023-03-19T17:32:58.025Z,45.84
2023-03-19T17:35:48.759Z,46.02
2023-03-19T17:38:34.141Z,45.77
2023-03-19T17:41:24.105Z,46.47
2023-03-19T17:44:09.339Z,46.84
2023-03-19T17:46:58.688Z,45.95
2023-03-19T17:49:35.253Z,46.72
2023-03-19T17:52:30.677Z,46.89
2023-03-19T17:55:25.183Z,46.53
2023-03-19T17:58:09.845Z,46.64
2023-03-19T18:01:02.556Z,46.96
2023-03-19T18:03:42.997Z,47.45
2023-03-19T18:06:20.611Z,46.44
2023-03-19T18:08:58.057Z,46.65
2023-03-19T18:11:44.077Z,46.98
2023-03-19T18:14:32.847Z,47.07
2023-03-19T18:17:17.225Z,46.92
2023-03-19T18:19:56.362Z,46.85
2023-03-19T18:22:42.949Z,46.39
2023-03-19T18:25:32.257Z,47.30
2023-03-19T18:27:59.059Z,47.02
2023-03-19T18:30:49.601Z,46.49
2023-03-19T18:33:34.991Z,46.97
2023-03-19T18:36:24.594Z,47.15
2023-03-19T18:39:10.066Z,47.40
2023-03-19T18:41:56.957Z,47.59
2023-03-19T18:44:45.606Z,48.02
2023-03-19T18:47:29.226Z,48.17
2023-03-19T18:50:16.809Z,48.44
2023-03-19T18:53:06.359Z,48.50
2023-03-19T18:55:52.932Z,48.22
2023-03-19T18:58:36.516Z,48.91
2023-03-19T19:01:16.545Z,49.01
2023-03-19T19:04:09.136Z,49.15
2023-03-19T19:07:02.960Z,49.40
2023-03-19T19:09:47.114Z,49.33
2023-03-19T19:12:35.847Z,49.91
2023-03-19T19:15:19.360Z,49.73
2023-03-19T19:18:09.954Z,49.71
2023-03-19T19:20:51.278Z,49.39
2023-03-19T19:23:37.633Z,49.01
2023-03-19T19:26:50.137Z,49.97
2023-03-19T19:29:36.617Z,50.36
2023-03-19T19:32:36.746Z,51.32
2023-03-19T19:35:30.669Z,50.74
2023-03-19T19:38:08.385Z,50.85
2023-03-19T19:40:56.816Z,51.25
2023-03-19T19:43:42.011Z,50.84
2023-03-19T19:46:27.164Z,50.94
2023-03-19T19:49:15.499Z,50.39
2023-03-19T19:51:55.608Z,51.01
2023-03-19T19:54:44.492Z,50.57
2023-03-19T19:57:33.116Z,50.85
2023-03-19T20:00:30.959Z,51.04
2023-03-19T20:03:23.782Z,50.88
2023-03-19T20:06:12.985Z,51.24
2023-03-19T20:09:01.830Z,51.12
2023-03-19T20:11:42.355Z,51.53
2023-03-19T20:14:37.570Z,50.95
2023-03-19T20:17:29.819Z,51.79
2023-03-19T20:20:25.194Z,51.68
2023-03-19T20:23:10.217Z,52.07
2023-03-19T20:26:02.266Z,51.79
2023-03-19T20:28:47.999Z,51.82
2023-03-19T20:31:37.056Z,52.06
2023-03-19T20:34:38.447Z,52.33
2023-03-19T20:37:21.566Z,52.43
2023-03-19T20:40:00.619Z,52.71
2023-03-19T20:42:46.885Z,52.74
2023-03-19T20:45:44.646Z,52.55
2023-03-19T20:48:28.826Z,52.51
2023-03-19T20:51:08.089Z,53.42
2023-03-19T20:53:58.818Z,52.82
2023-03-19T20:56:38.196Z,52.72
2023-03-19T20:59:24.759Z,52.48
2023-03-19T21:02:28.422Z,52.92
2023-03-19T21:05:09.523Z,52.26
2023-03-19T21:08:04.587Z,52.69
2023-03-19T21:11:04.725Z,52.49
2023-03-19T21:13:57.104Z,52.98
2023-03-19T21:16:32.340Z,53.06
2023-03-19T21:19:21.403Z,53.13
2023-03-19T21:21:55.778Z,53.27
2023-03-19T21:24:42.658Z,53.45
2023-03-19T21:27:27.037Z,53.43
2023-03-19T21:30:17.053Z,53.69
2023-03-19T21:32:57.121Z,54.52
2023-03-19T21:35:43.332Z,54.80
2023-03-19T21:38:23.426Z,54.88
2023-03-19T21:41:12.493Z,55.08
2023-03-19T21:44:19.557Z,54.98
2023-03-19T21:47:02.635Z,56.23
2023-03-19T21:49:48.623Z,55.81
2023-03-19T21:52:28.437Z,56.52
2023-03-19T21:55:12.605Z,56.88
2023-03-19T21:58:05.696Z,57.32
2023-03-19T22:00:51.502Z,57.42
2023-03-19T22:03:34.635Z,58.10
2023-03-19T22:06:20.310Z,59.25
2023-03-19T22:09:11.392Z,58.71
2023-03-19T22:11:56.928Z,58.99
2023-03-19T22:14:54.641Z,57.99
2023-03-19T22:17:34.390Z,57.61
2023-03-19T22:20:28.689Z,58.48
2023-03-19T22:23:06.606Z,57.79
2023-03-19T22:25:54.889Z,57.79
2023-03-19T22:28:37.207Z,57.61
2023-03-19T22:31:23.768Z,57.84
2023-03-19T22:34:17.650Z,56.70
2023-03-19T22:37:03.289Z,56.95
2023-03-19T22:39:51.032Z,57.57
2023-03-19T22:42:35.852Z,58.22
2023-03-19T22:45:34.970Z,57.54
2023-03-19T22:48:17.252Z,57.64
2023-03-19T22:51:09.014Z,57.94
2023-03-19T22:53:52.865Z,56.96
2023-03-19T22:56:29.051Z,57.18
2023-03-19T22:59:07.762Z,57.45
2023-03-19T23:01:58.067Z,57.87
2023-03-19T23:04:43.015Z,57.65
2023-03-19T23:07:28.938Z,57.36
2023-03-19T23:10:28.787Z,58.28
2023-03-19T23:13:12.731Z,57.77
2023-03-19T23:15:55.401Z,58.44
2023-03-19T23:18:41.710Z,58.38
2023-03-19T23:21:34.119Z,59.05
2023-03-19T23:24:14.063Z,59.33
2023-03-19T23:26:59.790Z,58.79
2023-03-19T23:29:51.929Z,58.85
2023-03-19T23:32:41.930Z,58.95
2023-03-19T23:35:24.907Z,58.72
2023-03-19T23:38:05.269Z,59.26
2023-03-19T23:40:55.968Z,60.21
2023-03-19T23:43:45.671Z,59.80
2023-03-19T23:46:34.602Z,60.57
2023-03-19T23:49:32.337Z,61.62
2023-03-19T23:52:22.585Z,61.78
2023-03-19T23:55:11.023Z,61.98
2023-03-19T23:57:50.620Z,63.08
